createdAt,value
2023-04-29T00:00:57.071Z,11.95
2023-04-29T00:01:57.065Z,11.96
2023-04-29T00:02:57.132Z,11.94
2023-04-29T00:03:57.372Z,11.94
2023-04-29T00:04:57.234Z,11.91
2023-04-29T00:05:57.343Z,11.94
2023-04-29T00:06:57.008Z,11.90
2023-04-29T00:07:56.992Z,11.91
2023-04-29T00:08:56.964Z,11.91
2023-04-29T00:09:56.940Z,11.91
2023-04-29T00:10:56.935Z,11.88
2023-04-29T00:11:56.942Z,11.86
2023-04-29T00:12:56.988Z,11.86
2023-04-29T00:13:56.949Z,11.85
2023-04-29T00:14:57.019Z,11.85
2023-04-29T00:15:56.927Z,11.83
2023-04-29T00:16:56.966Z,11.85
2023-04-29T00:20:36.691Z,11.83
2023-04-29T00:21:45.578Z,11.82
2023-04-29T00:22:53.235Z,11.82
2023-04-29T00:23:37.052Z,11.82
2023-04-29T00:24:36.985Z,11.82
2023-04-29T00:25:36.593Z,11.80
2023-04-29T00:26:36.868Z,11.79
2023-04-29T00:27:36.490Z,11.79
2023-04-29T00:28:36.553Z,11.78
2023-04-29T00:29:36.414Z,11.78
2023-04-29T00:30:36.411Z,11.79
2023-04-29T00:31:36.607Z,11.78
2023-04-29T00:32:36.486Z,11.76
2023-04-29T00:33:36.711Z,11.78
2023-04-29T00:34:36.421Z,11.75
2023-04-29T00:35:36.420Z,11.73
2023-04-29T00:36:36.415Z,11.75
2023-04-29T00:37:36.442Z,11.76
2023-04-29T00:38:36.875Z,11.73
2023-04-29T00:39:36.326Z,11.73
2023-04-29T00:40:36.310Z,11.73
2023-04-29T00:41:36.436Z,11.72
2023-04-29T00:42:36.303Z,11.70
2023-04-29T00:43:36.338Z,11.70
2023-04-29T00:44:36.344Z,11.72
2023-04-29T00:45:36.357Z,11.72
2023-04-29T00:46:36.277Z,11.72
2023-04-29T00:47:36.303Z,11.70
2023-04-29T00:48:36.271Z,11.70
2023-04-29T00:49:36.249Z,11.70
2023-04-29T00:50:36.544Z,11.70
2023-04-29T00:51:36.281Z,11.70
2023-04-29T00:52:36.151Z,11.69
2023-04-29T00:53:36.149Z,11.69
2023-04-29T00:54:36.189Z,11.70
2023-04-29T00:55:36.091Z,11.70
2023-04-29T00:56:36.158Z,11.70
2023-04-29T00:57:36.166Z,11.69
2023-04-29T00:58:36.106Z,11.67
2023-04-29T00:59:36.307Z,11.65
2023-04-29T01:00:37.099Z,11.70
2023-04-29T01:01:36.149Z,11.69
2023-04-29T01:02:36.167Z,11.67
2023-04-29T01:03:36.154Z,11.67
2023-04-29T01:04:36.132Z,11.67
2023-04-29T01:05:36.069Z,11.67
2023-04-29T01:06:36.004Z,11.67
2023-04-29T01:07:36.087Z,11.67
2023-04-29T01:08:36.003Z,11.65
2023-04-29T01:09:35.957Z,11.64
2023-04-29T01:10:35.970Z,11.64
2023-04-29T01:11:35.961Z,11.62
2023-04-29T01:12:36.091Z,11.61
2023-04-29T01:13:35.952Z,11.62
2023-04-29T01:14:35.964Z,11.58
2023-04-29T01:15:35.986Z,11.60
2023-04-29T01:16:35.958Z,11.58
2023-04-29T01:17:35.975Z,11.58
2023-04-29T01:18:35.898Z,11.57
2023-04-29T01:19:35.952Z,11.58
2023-04-29T01:20:35.880Z,11.54
2023-04-29T01:21:35.884Z,11.51
2023-04-29T01:22:35.809Z,11.52
2023-04-29T01:23:35.810Z,11.51
2023-04-29T01:24:35.824Z,11.49
2023-04-29T01:25:35.917Z,11.47
2023-04-29T01:26:35.822Z,11.44
2023-04-29T01:27:35.933Z,11.46
2023-04-29T01:28:35.829Z,11.43
2023-04-29T01:29:35.780Z,11.43
2023-04-29T01:30:35.942Z,11.40
2023-04-29T01:31:35.795Z,11.36
2023-04-29T01:32:35.860Z,11.36
2023-04-29T01:33:35.802Z,11.36
2023-04-29T01:34:35.703Z,11.33
2023-04-29T01:35:35.708Z,11.35
2023-04-29T01:36:35.728Z,11.28
2023-04-29T01:37:35.718Z,11.29
2023-04-29T01:38:35.687Z,11.29
2023-04-29T01:39:35.785Z,11.29
2023-04-29T01:40:35.649Z,11.28
2023-04-29T01:41:35.699Z,11.27
2023-04-29T01:42:35.702Z,11.28
2023-04-29T01:43:35.702Z,11.25
2023-04-29T01:44:39.549Z,11.25
2023-04-29T01:45:35.784Z,11.27
2023-04-29T01:46:35.635Z,11.25
2023-04-29T01:47:35.617Z,11.27
2023-04-29T01:48:35.600Z,11.24
2023-04-29T01:49:35.616Z,11.24
2023-04-29T01:50:35.613Z,11.22
2023-04-29T01:51:35.910Z,11.21
2023-04-29T01:52:35.592Z,11.19
2023-04-29T01:53:35.568Z,11.19
2023-04-29T01:54:35.779Z,11.19
2023-04-29T01:55:35.539Z,11.17
2023-04-29T01:56:35.572Z,11.17
2023-04-29T01:57:35.684Z,11.17
2023-04-29T01:58:35.635Z,11.14
2023-04-29T01:59:35.590Z,11.14
2023-04-29T02:00:35.442Z,11.10
2023-04-29T02:01:35.870Z,11.11
2023-04-29T02:02:35.515Z,11.10
2023-04-29T02:03:35.654Z,11.10
2023-04-29T02:04:35.843Z,11.09
2023-04-29T02:05:35.461Z,11.06
2023-04-29T02:06:35.460Z,11.06
2023-04-29T02:07:35.471Z,11.04
2023-04-29T02:08:35.415Z,11.03
2023-04-29T02:09:35.425Z,11.03
2023-04-29T02:10:35.388Z,11.02
2023-04-29T02:11:35.563Z,11.02
2023-04-29T02:12:35.370Z,10.97
2023-04-29T02:13:35.350Z,10.99
2023-04-29T02:14:37.570Z,10.97
2023-04-29T02:15:35.385Z,10.92
2023-04-29T02:16:35.332Z,10.92
2023-04-29T02:17:35.314Z,10.94
2023-04-29T02:18:35.337Z,10.94
2023-04-29T02:19:35.567Z,10.92
2023-04-29T02:20:35.436Z,10.91
2023-04-29T02:21:35.588Z,10.94
2023-04-29T02:22:35.465Z,10.88
2023-04-29T02:23:35.319Z,10.88
2023-04-29T02:24:35.282Z,10.89
2023-04-29T02:25:35.936Z,10.88
2023-04-29T02:26:35.426Z,10.88
2023-04-29T02:27:35.278Z,10.88
2023-04-29T02:28:35.221Z,10.86
2023-04-29T02:29:35.309Z,10.86
2023-04-29T02:30:35.443Z,10.84
2023-04-29T02:31:35.262Z,10.85
2023-04-29T02:32:35.665Z,10.82
2023-04-29T02:33:35.356Z,10.82
2023-04-29T02:34:35.099Z,10.82
2023-04-29T02:35:35.074Z,10.82
2023-04-29T02:36:35.036Z,10.81
2023-04-29T02:37:35.029Z,10.79
2023-04-29T02:38:35.000Z,10.78
2023-04-29T02:39:35.045Z,10.78
2023-04-29T02:40:35.030Z,10.76
2023-04-29T02:41:35.029Z,10.76
2023-04-29T02:42:34.947Z,10.76
2023-04-29T02:43:34.955Z,10.73
2023-04-29T02:44:34.971Z,10.73
2023-04-29T02:45:34.980Z,10.74
2023-04-29T02:46:34.915Z,10.74
2023-04-29T02:47:34.927Z,10.73
2023-04-29T02:48:34.881Z,10.73
2023-04-29T02:49:34.908Z,10.73
2023-04-29T02:50:34.874Z,10.73
2023-04-29T02:51:34.897Z,10.73
2023-04-29T02:52:34.892Z,10.73
2023-04-29T02:53:34.864Z,10.73
2023-04-29T02:54:34.800Z,10.73
2023-04-29T02:55:34.869Z,10.73
2023-04-29T02:56:34.825Z,10.73
2023-04-29T02:57:34.827Z,10.71
2023-04-29T02:58:34.801Z,10.71
2023-04-29T02:59:34.806Z,10.71
2023-04-29T03:00:34.773Z,10.71
2023-04-29T03:01:34.837Z,10.70
2023-04-29T03:02:34.926Z,10.71
2023-04-29T03:03:35.050Z,10.71
2023-04-29T03:04:34.765Z,10.68
2023-04-29T03:05:34.780Z,10.70
2023-04-29T03:06:34.699Z,10.71
2023-04-29T03:07:34.737Z,10.70
2023-04-29T03:08:34.677Z,10.71
2023-04-29T03:09:34.685Z,10.68
2023-04-29T03:10:34.720Z,10.70
2023-04-29T03:11:34.695Z,10.70
2023-04-29T03:12:34.682Z,10.68
2023-04-29T03:13:34.650Z,10.68
2023-04-29T03:14:34.648Z,10.67
2023-04-29T03:15:49.453Z,10.67
2023-04-29T03:16:34.658Z,10.66
2023-04-29T03:17:34.604Z,10.64
2023-04-29T03:20:54.764Z,10.66
2023-04-29T03:21:54.727Z,10.66
2023-04-29T03:22:54.691Z,10.64
2023-04-29T03:26:12.642Z,10.63
2023-04-29T03:27:21.884Z,10.60
2023-04-29T03:28:12.497Z,10.60
2023-04-29T03:29:12.440Z,10.60
2023-04-29T03:30:12.456Z,10.59
2023-04-29T03:31:12.460Z,10.55
2023-04-29T03:32:12.417Z,10.53
2023-04-29T03:33:12.370Z,10.53
2023-04-29T03:34:12.419Z,10.48
2023-04-29T03:35:14.862Z,10.47
2023-04-29T03:36:12.365Z,10.45
2023-04-29T03:37:12.402Z,10.44
2023-04-29T03:38:12.490Z,10.42
2023-04-29T03:39:12.594Z,10.42
2023-04-29T03:40:12.549Z,10.42
2023-04-29T03:41:12.788Z,10.42
2023-04-29T03:42:12.638Z,10.42
2023-04-29T03:43:12.665Z,10.41
2023-04-29T03:44:12.687Z,10.38
2023-04-29T03:45:12.455Z,10.38
2023-04-29T03:46:12.396Z,10.33
2023-04-29T03:47:12.501Z,10.34
2023-04-29T03:48:12.278Z,10.30
2023-04-29T03:49:12.304Z,10.30
2023-04-29T03:50:12.210Z,10.32
2023-04-29T03:51:16.876Z,10.29
2023-04-29T03:52:12.448Z,10.30
2023-04-29T03:53:12.224Z,10.29
2023-04-29T03:54:12.229Z,10.27
2023-04-29T03:55:12.499Z,10.27
2023-04-29T03:56:12.424Z,10.27
2023-04-29T03:57:12.375Z,10.29
2023-04-29T03:58:12.369Z,10.27
2023-04-29T03:59:12.427Z,10.26
2023-04-29T04:00:13.024Z,10.25
2023-04-29T04:01:12.557Z,10.22
2023-04-29T04:02:12.270Z,10.22
2023-04-29T04:03:12.919Z,10.17
2023-04-29T04:04:12.467Z,10.18
2023-04-29T04:05:12.712Z,10.18
2023-04-29T04:06:12.480Z,10.17
2023-04-29T04:07:12.088Z,10.17
2023-04-29T04:08:12.012Z,10.14
2023-04-29T04:09:11.989Z,10.12
2023-04-29T04:10:12.018Z,10.14
2023-04-29T04:11:12.066Z,10.12
2023-04-29T04:12:11.972Z,10.14
2023-04-29T04:13:12.212Z,10.12
2023-04-29T04:14:12.327Z,10.14
2023-04-29T04:15:12.543Z,10.14
2023-04-29T04:16:13.454Z,10.12
2023-04-29T04:17:12.055Z,10.12
2023-04-29T04:18:12.096Z,10.12
2023-04-29T04:19:12.005Z,10.11
2023-04-29T04:20:11.969Z,10.12
2023-04-29T04:21:11.972Z,10.09
2023-04-29T04:22:12.935Z,10.11
2023-04-29T04:23:11.879Z,10.12
2023-04-29T04:24:11.850Z,10.11
2023-04-29T04:25:11.960Z,10.12
2023-04-29T04:26:11.814Z,10.09
2023-04-29T04:27:11.836Z,10.09
2023-04-29T04:28:11.886Z,10.09
2023-04-29T04:29:11.827Z,10.09
2023-04-29T04:30:11.834Z,10.11
2023-04-29T04:31:12.038Z,10.11
2023-04-29T04:32:12.008Z,10.08
2023-04-29T04:33:12.056Z,10.08
2023-04-29T04:34:11.761Z,10.08
2023-04-29T04:35:11.859Z,10.09
2023-04-29T04:36:12.779Z,10.11
2023-04-29T04:37:12.545Z,10.11
2023-04-29T04:38:13.519Z,10.08
2023-04-29T04:39:11.819Z,10.12
2023-04-29T04:40:11.787Z,10.08
2023-04-29T04:41:11.680Z,10.12
2023-04-29T04:42:11.679Z,10.11
2023-04-29T04:43:11.679Z,10.09
2023-04-29T04:44:11.613Z,10.09
2023-04-29T04:45:11.684Z,10.11
2023-04-29T04:46:11.697Z,10.08
2023-04-29T04:47:11.617Z,10.08
2023-04-29T04:48:11.694Z,10.09
2023-04-29T04:49:11.754Z,10.07
2023-04-29T04:50:11.565Z,10.09
2023-04-29T04:51:18.540Z,10.09
2023-04-29T04:52:11.495Z,10.11
2023-04-29T04:53:11.497Z,10.11
2023-04-29T04:54:11.488Z,10.12
2023-04-29T04:55:13.170Z,10.11
2023-04-29T04:56:11.450Z,10.09
2023-04-29T04:57:11.454Z,10.09
2023-04-29T04:58:11.433Z,10.08
2023-04-29T04:59:11.434Z,10.11
2023-04-29T05:00:11.440Z,10.11
2023-04-29T05:01:11.465Z,10.09
2023-04-29T05:02:11.432Z,10.09
2023-04-29T05:03:11.562Z,10.08
2023-04-29T05:04:11.514Z,10.11
2023-04-29T05:05:11.367Z,10.09
2023-04-29T05:06:11.342Z,10.11
2023-04-29T05:07:11.518Z,10.09
2023-04-29T05:08:11.324Z,10.11
2023-04-29T05:09:11.317Z,10.09
2023-04-29T05:10:11.320Z,10.09
2023-04-29T05:11:11.300Z,10.12
2023-04-29T05:12:11.299Z,10.12
2023-04-29T05:13:11.282Z,10.14
2023-04-29T05:14:11.255Z,10.14
2023-04-29T05:15:11.263Z,10.15
2023-04-29T05:16:11.285Z,10.14
2023-04-29T05:17:11.243Z,10.15
2023-04-29T05:18:11.198Z,10.15
2023-04-29T05:19:11.218Z,10.15
2023-04-29T05:20:11.195Z,10.15
2023-04-29T05:21:11.182Z,10.15
2023-04-29T05:22:11.180Z,10.15
2023-04-29T05:23:11.162Z,10.15
2023-04-29T05:24:11.172Z,10.18
2023-04-29T05:25:11.150Z,10.17
2023-04-29T05:26:11.123Z,10.22
2023-04-29T05:27:11.132Z,10.17
2023-04-29T05:28:11.093Z,10.17
2023-04-29T05:29:11.152Z,10.17
2023-04-29T05:30:11.100Z,10.18
2023-04-29T05:31:11.182Z,10.18
2023-04-29T05:32:11.074Z,10.17
2023-04-29T05:33:11.073Z,10.15
2023-04-29T05:34:11.100Z,10.17
2023-04-29T05:35:11.048Z,10.12
2023-04-29T05:36:11.034Z,10.12
2023-04-29T05:37:11.046Z,10.14
2023-04-29T05:38:11.030Z,10.12
2023-04-29T05:39:11.010Z,10.14
2023-04-29T05:40:11.007Z,10.12
2023-04-29T05:41:10.969Z,10.14
2023-04-29T05:42:10.956Z,10.17
2023-04-29T05:43:10.982Z,10.17
2023-04-29T05:44:10.966Z,10.15
2023-04-29T05:45:11.184Z,10.18
2023-04-29T05:46:10.967Z,10.17
2023-04-29T05:47:10.943Z,10.20
2023-04-29T05:48:10.926Z,10.20
2023-04-29T05:49:10.913Z,10.23
2023-04-29T05:50:10.904Z,10.18
2023-04-29T05:51:10.932Z,10.20
2023-04-29T05:52:10.866Z,10.20
2023-04-29T05:53:10.854Z,10.22
2023-04-29T05:54:10.872Z,10.20
2023-04-29T05:55:10.833Z,10.22
2023-04-29T05:56:10.839Z,10.23
2023-04-29T05:57:10.813Z,10.23
2023-04-29T05:58:10.819Z,10.26
2023-04-29T05:59:10.790Z,10.26
2023-04-29T06:00:10.785Z,10.27
2023-04-29T06:01:10.799Z,10.29
2023-04-29T06:02:10.789Z,10.26
2023-04-29T06:03:10.908Z,10.27
2023-04-29T06:04:10.891Z,10.32
2023-04-29T06:05:10.894Z,10.30
2023-04-29T06:06:10.772Z,10.30
2023-04-29T06:07:10.735Z,10.33
2023-04-29T06:08:10.692Z,10.34
2023-04-29T06:09:16.582Z,10.38
2023-04-29T06:10:11.678Z,10.38
2023-04-29T06:11:10.854Z,10.40
2023-04-29T06:12:10.662Z,10.40
2023-04-29T06:13:10.692Z,10.40
2023-04-29T06:14:10.617Z,10.42
2023-04-29T06:15:10.658Z,10.41
2023-04-29T06:16:10.635Z,10.42
2023-04-29T06:17:10.617Z,10.44
2023-04-29T06:18:10.576Z,10.45
2023-04-29T06:19:10.609Z,10.47
2023-04-29T06:20:10.573Z,10.51
2023-04-29T06:21:10.580Z,10.53
2023-04-29T06:22:10.575Z,10.59
2023-04-29T06:23:10.581Z,10.56
2023-04-29T06:24:10.556Z,10.55
2023-04-29T06:25:10.543Z,10.55
2023-04-29T06:26:10.505Z,10.55
2023-04-29T06:27:10.488Z,10.53
2023-04-29T06:28:10.476Z,10.55
2023-04-29T06:29:10.496Z,10.56
2023-04-29T06:30:10.467Z,10.56
2023-04-29T06:31:10.514Z,10.60
2023-04-29T06:32:10.529Z,10.60
2023-04-29T06:33:10.511Z,10.61
2023-04-29T06:34:10.416Z,10.59
2023-04-29T06:35:10.442Z,10.60
2023-04-29T06:36:10.382Z,10.60
2023-04-29T06:37:10.393Z,10.66
2023-04-29T06:38:10.372Z,10.66
2023-04-29T06:39:10.401Z,10.71
2023-04-29T06:40:10.443Z,10.74
2023-04-29T06:41:10.363Z,10.70
2023-04-29T06:42:10.333Z,10.63
2023-04-29T06:43:10.315Z,10.64
2023-04-29T06:44:10.292Z,10.68
2023-04-29T06:45:10.292Z,10.71
2023-04-29T06:46:10.279Z,10.71
2023-04-29T06:47:10.330Z,10.70
2023-04-29T06:48:10.288Z,10.71
2023-04-29T06:49:10.252Z,10.71
2023-04-29T06:50:10.238Z,10.74
2023-04-29T06:51:10.239Z,10.73
2023-04-29T06:52:10.215Z,10.73
2023-04-29T06:53:10.251Z,10.76
2023-04-29T06:54:10.172Z,10.82
2023-04-29T06:55:10.180Z,10.84
2023-04-29T06:56:10.160Z,10.82
2023-04-29T06:57:10.191Z,10.85
2023-04-29T06:58:10.173Z,10.85
2023-04-29T06:59:10.165Z,10.84
2023-04-29T07:00:10.128Z,10.86
2023-04-29T07:01:10.160Z,10.85
2023-04-29T07:02:10.104Z,10.85
2023-04-29T07:03:10.184Z,10.86
2023-04-29T07:04:10.158Z,10.88
2023-04-29T07:05:10.085Z,10.88
2023-04-29T07:06:10.080Z,10.91
2023-04-29T07:07:10.085Z,10.88
2023-04-29T07:08:10.032Z,10.89
2023-04-29T07:09:10.034Z,10.89
2023-04-29T07:10:10.011Z,10.88
2023-04-29T07:11:10.193Z,10.89
2023-04-29T07:12:10.001Z,10.85
2023-04-29T07:13:10.004Z,10.88
2023-04-29T07:14:09.984Z,10.91
2023-04-29T07:15:09.985Z,10.89
2023-04-29T07:16:10.011Z,10.92
2023-04-29T07:17:11.408Z,10.99
2023-04-29T07:18:10.008Z,10.99
2023-04-29T07:19:09.944Z,10.96
2023-04-29T07:20:09.910Z,10.99
2023-04-29T07:21:09.916Z,10.97
2023-04-29T07:22:09.889Z,10.99
2023-04-29T07:23:09.918Z,10.96
2023-04-29T07:24:09.853Z,10.97
2023-04-29T07:25:09.892Z,10.96
2023-04-29T07:26:10.349Z,10.97
2023-04-29T07:27:10.053Z,11.03
2023-04-29T07:28:09.834Z,11.04
2023-04-29T07:29:09.820Z,11.07
2023-04-29T07:30:09.822Z,11.14
2023-04-29T07:31:09.889Z,11.15
2023-04-29T07:32:09.772Z,11.22
2023-04-29T07:33:09.790Z,11.28
2023-04-29T07:34:09.765Z,11.35
2023-04-29T07:35:09.771Z,11.33
2023-04-29T07:36:09.743Z,11.40
2023-04-29T07:37:09.729Z,11.47
2023-04-29T07:38:09.716Z,11.46
2023-04-29T07:39:09.722Z,11.51
2023-04-29T07:40:09.701Z,11.43
2023-04-29T07:41:09.712Z,11.39
2023-04-29T07:42:09.852Z,11.42
2023-04-29T07:43:09.692Z,11.46
2023-04-29T07:44:09.688Z,11.46
2023-04-29T07:45:09.661Z,11.57
2023-04-29T07:46:09.677Z,11.64
2023-04-29T07:47:09.657Z,11.65
2023-04-29T07:48:09.616Z,11.69
2023-04-29T07:49:09.622Z,11.69
2023-04-29T07:50:09.570Z,11.62
2023-04-29T07:51:09.586Z,11.61
2023-04-29T07:52:09.588Z,11.67
2023-04-29T07:53:09.552Z,11.70
2023-04-29T07:54:09.565Z,11.76
2023-04-29T07:55:09.532Z,11.79
2023-04-29T07:56:09.539Z,11.91
2023-04-29T07:57:09.510Z,11.98
2023-04-29T07:58:09.517Z,12.04
2023-04-29T07:59:09.493Z,12.09
2023-04-29T08:00:09.542Z,12.04
2023-04-29T08:01:09.448Z,12.09
2023-04-29T08:02:09.474Z,12.13
2023-04-29T08:03:09.541Z,12.24
2023-04-29T08:04:09.653Z,12.28
2023-04-29T08:05:09.795Z,12.37
2023-04-29T08:06:09.521Z,12.34
2023-04-29T08:07:09.449Z,12.32
2023-04-29T08:08:09.422Z,12.28
2023-04-29T08:09:09.393Z,12.34
2023-04-29T08:10:09.380Z,12.39
2023-04-29T08:11:09.367Z,12.47
2023-04-29T08:12:09.382Z,12.57
2023-04-29T08:13:09.493Z,12.65
2023-04-29T08:14:09.356Z,12.70
2023-04-29T08:15:10.077Z,12.74
2023-04-29T08:16:09.358Z,12.83
2023-04-29T08:17:09.297Z,12.89
2023-04-29T08:18:09.349Z,12.93
2023-04-29T08:19:09.290Z,13.01
2023-04-29T08:20:09.282Z,13.07
2023-04-29T08:21:09.292Z,13.15
2023-04-29T08:22:09.266Z,13.22
2023-04-29T08:23:09.237Z,13.30
2023-04-29T08:24:09.283Z,13.26
2023-04-29T08:25:09.207Z,13.36
2023-04-29T08:26:09.208Z,13.48
2023-04-29T08:27:09.203Z,13.52
2023-04-29T08:28:09.387Z,13.45
2023-04-29T08:29:09.178Z,13.39
2023-04-29T08:30:09.189Z,13.38
2023-04-29T08:31:09.197Z,13.39
2023-04-29T08:32:09.121Z,13.44
2023-04-29T08:33:09.136Z,13.49
2023-04-29T08:34:09.167Z,13.62
2023-04-29T08:35:09.135Z,13.66
2023-04-29T08:36:09.103Z,13.64
2023-04-29T08:37:09.142Z,13.62
2023-04-29T08:38:09.106Z,13.59
2023-04-29T08:39:09.089Z,13.48
2023-04-29T08:40:09.066Z,13.29
2023-04-29T08:41:09.057Z,13.41
2023-04-29T08:42:09.029Z,13.38
2023-04-29T08:43:09.013Z,13.45
2023-04-29T08:44:09.076Z,13.49
2023-04-29T08:45:09.029Z,13.57
2023-04-29T08:46:09.085Z,13.51
2023-04-29T08:47:08.996Z,13.32
2023-04-29T08:48:09.098Z,13.20
2023-04-29T08:49:08.975Z,13.20
2023-04-29T08:50:08.978Z,13.03
2023-04-29T08:51:08.929Z,12.79
2023-04-29T08:52:08.927Z,12.85
2023-04-29T08:53:08.901Z,12.89
2023-04-29T08:54:08.923Z,13.01
2023-04-29T08:55:08.921Z,13.22
2023-04-29T08:56:08.908Z,13.29
2023-04-29T08:57:08.861Z,13.30
2023-04-29T08:58:08.911Z,13.33
2023-04-29T08:59:08.860Z,13.28
2023-04-29T09:00:08.850Z,13.25
2023-04-29T09:01:08.872Z,13.25
2023-04-29T09:02:08.839Z,13.20
2023-04-29T09:03:08.853Z,13.33
2023-04-29T09:04:08.836Z,13.46
2023-04-29T09:05:08.786Z,13.45
2023-04-29T09:06:08.790Z,13.57
2023-04-29T09:07:08.794Z,13.62
2023-04-29T09:08:08.747Z,13.70
2023-04-29T09:09:08.752Z,13.75
2023-04-29T09:10:08.743Z,13.81
2023-04-29T09:11:08.714Z,14.00
2023-04-29T09:12:08.712Z,14.15
2023-04-29T09:13:08.687Z,14.29
2023-04-29T09:14:08.678Z,14.39
2023-04-29T09:15:08.834Z,14.54
2023-04-29T09:16:08.704Z,14.62
2023-04-29T09:17:08.647Z,14.65
2023-04-29T09:18:08.741Z,14.36
2023-04-29T09:19:08.621Z,14.27
2023-04-29T09:20:08.658Z,14.10
2023-04-29T09:21:08.622Z,13.85
2023-04-29T09:22:08.604Z,13.87
2023-04-29T09:23:08.582Z,13.99
2023-04-29T09:24:08.588Z,14.18
2023-04-29T09:25:08.580Z,14.27
2023-04-29T09:26:08.553Z,14.22
2023-04-29T09:27:08.540Z,14.18
2023-04-29T09:28:08.550Z,14.40
2023-04-29T09:29:08.527Z,14.91
2023-04-29T09:30:08.518Z,15.14
2023-04-29T09:31:08.551Z,15.23
2023-04-29T09:32:08.522Z,15.34
2023-04-29T09:33:08.530Z,15.43
2023-04-29T09:34:08.479Z,15.29
2023-04-29T09:35:08.453Z,14.95
2023-04-29T09:36:08.461Z,14.80
2023-04-29T09:37:08.433Z,14.92
2023-04-29T09:38:08.455Z,15.02
2023-04-29T09:39:08.420Z,15.28
2023-04-29T09:40:08.415Z,15.43
2023-04-29T09:41:08.392Z,15.41
2023-04-29T09:42:08.384Z,15.20
2023-04-29T09:43:08.367Z,15.19
2023-04-29T09:44:08.371Z,15.41
2023-04-29T09:45:08.344Z,15.64
2023-04-29T09:46:08.521Z,15.64
2023-04-29T09:47:08.329Z,15.53
2023-04-29T09:48:08.362Z,15.51
2023-04-29T09:49:08.302Z,15.65
2023-04-29T09:50:08.297Z,15.75
2023-04-29T09:51:08.325Z,16.00
2023-04-29T09:52:08.291Z,15.92
2023-04-29T09:53:08.257Z,16.15
2023-04-29T09:54:08.251Z,16.23
2023-04-29T09:55:08.229Z,16.09
2023-04-29T09:56:08.234Z,16.09
2023-04-29T09:57:08.241Z,16.31
2023-04-29T09:58:08.233Z,16.30
2023-04-29T09:59:08.200Z,16.35
2023-04-29T10:00:08.205Z,16.38
2023-04-29T10:01:08.204Z,16.38
2023-04-29T10:02:08.181Z,16.34
2023-04-29T10:03:08.203Z,16.34
2023-04-29T10:04:08.184Z,16.21
2023-04-29T10:05:08.217Z,16.12
2023-04-29T10:06:08.187Z,15.83
2023-04-29T10:07:08.160Z,15.39
2023-04-29T10:08:08.106Z,15.11
2023-04-29T10:09:08.109Z,14.96
2023-04-29T10:10:08.119Z,14.80
2023-04-29T10:11:08.110Z,14.61
2023-04-29T10:12:08.078Z,14.65
2023-04-29T10:13:08.068Z,14.78
2023-04-29T10:14:08.066Z,14.77
2023-04-29T10:15:08.022Z,14.98
2023-04-29T10:16:08.434Z,15.10
2023-04-29T10:17:08.151Z,14.94
2023-04-29T10:18:08.046Z,14.86
2023-04-29T10:19:07.996Z,14.91
2023-04-29T10:20:08.031Z,15.01
2023-04-29T10:21:07.951Z,15.06
2023-04-29T10:22:07.953Z,15.19
2023-04-29T10:23:07.945Z,15.29
2023-04-29T10:24:07.931Z,15.36
2023-04-29T10:25:07.935Z,15.20
2023-04-29T10:26:07.916Z,15.13
2023-04-29T10:27:07.891Z,15.07
2023-04-29T10:28:07.908Z,15.13
2023-04-29T10:29:07.896Z,15.27
2023-04-29T10:30:07.886Z,15.56
2023-04-29T10:31:07.904Z,15.76
2023-04-29T10:32:07.860Z,16.01
2023-04-29T10:33:07.867Z,16.12
2023-04-29T10:34:07.849Z,16.15
2023-04-29T10:35:07.791Z,16.17
2023-04-29T10:36:07.820Z,16.28
2023-04-29T10:37:07.821Z,16.34
2023-04-29T10:38:07.830Z,16.12
2023-04-29T10:39:07.804Z,15.74
2023-04-29T10:40:07.754Z,15.51
2023-04-29T10:41:07.736Z,15.49
2023-04-29T10:42:07.731Z,15.59
2023-04-29T10:43:07.703Z,15.60
2023-04-29T10:44:07.728Z,15.62
2023-04-29T10:45:07.703Z,15.72
2023-04-29T10:46:07.727Z,15.92
2023-04-29T10:47:07.674Z,16.02
2023-04-29T10:48:07.863Z,15.94
2023-04-29T10:49:07.709Z,16.02
2023-04-29T10:50:07.661Z,16.09
2023-04-29T10:51:07.643Z,16.09
2023-04-29T10:52:07.633Z,15.87
2023-04-29T10:53:07.637Z,15.50
2023-04-29T10:54:07.643Z,15.53
2023-04-29T10:55:07.611Z,15.60
2023-04-29T10:56:07.592Z,15.72
2023-04-29T10:57:07.569Z,15.75
2023-04-29T10:58:07.577Z,15.76
2023-04-29T10:59:07.549Z,15.74
2023-04-29T11:00:07.547Z,15.49
2023-04-29T11:01:07.603Z,15.39
2023-04-29T11:02:07.539Z,15.47
2023-04-29T11:03:07.655Z,15.44
2023-04-29T11:04:07.603Z,15.36
2023-04-29T11:05:07.484Z,15.38
2023-04-29T11:06:07.493Z,15.44
2023-04-29T11:07:07.458Z,15.46
2023-04-29T11:08:07.453Z,15.31
2023-04-29T11:09:07.457Z,15.11
2023-04-29T11:10:07.457Z,14.91
2023-04-29T11:11:07.441Z,14.84
2023-04-29T11:12:07.423Z,14.91
2023-04-29T11:13:07.400Z,14.78
2023-04-29T11:14:07.412Z,14.83
2023-04-29T11:15:07.398Z,14.84
2023-04-29T11:16:07.425Z,14.73
2023-04-29T11:17:07.372Z,14.65
2023-04-29T11:18:07.398Z,14.68
2023-04-29T11:19:07.616Z,14.72
2023-04-29T11:20:07.343Z,14.88
2023-04-29T11:21:07.326Z,15.01
2023-04-29T11:22:07.300Z,15.20
2023-04-29T11:23:07.288Z,15.36
2023-04-29T11:24:07.294Z,15.49
2023-04-29T11:25:07.424Z,15.65
2023-04-29T11:26:07.298Z,15.82
2023-04-29T11:27:07.240Z,15.90
2023-04-29T11:28:07.263Z,16.02
2023-04-29T11:29:07.225Z,16.05
2023-04-29T11:30:07.242Z,16.02
2023-04-29T11:31:07.227Z,15.90
2023-04-29T11:32:07.263Z,15.75
2023-04-29T11:33:07.208Z,16.02
2023-04-29T11:34:07.215Z,16.43
2023-04-29T11:35:07.166Z,16.78
2023-04-29T11:36:07.200Z,16.82
2023-04-29T11:37:07.144Z,16.86
2023-04-29T11:38:07.153Z,16.78
2023-04-29T11:39:07.115Z,16.89
2023-04-29T11:40:07.806Z,16.97
2023-04-29T11:41:07.092Z,17.04
2023-04-29T11:42:07.187Z,16.94
2023-04-29T11:43:07.076Z,16.50
2023-04-29T11:44:07.077Z,16.25
2023-04-29T11:45:07.055Z,16.43
2023-04-29T11:46:07.090Z,16.05
2023-04-29T11:47:07.033Z,16.01
2023-04-29T11:48:07.075Z,16.12
2023-04-29T11:49:07.021Z,16.30
2023-04-29T11:50:07.088Z,16.38
2023-04-29T11:51:06.989Z,16.31
2023-04-29T11:52:06.989Z,16.24
2023-04-29T11:53:08.897Z,16.07
2023-04-29T11:54:08.329Z,15.93
2023-04-29T11:55:07.022Z,15.78
2023-04-29T11:56:07.023Z,15.65
2023-04-29T11:57:06.939Z,15.53
2023-04-29T11:58:06.932Z,15.44
2023-04-29T11:59:06.905Z,15.46
2023-04-29T12:00:09.130Z,15.47
2023-04-29T12:01:07.820Z,15.49
2023-04-29T12:02:06.907Z,15.39
2023-04-29T12:03:07.177Z,15.43
2023-04-29T12:04:07.028Z,15.27
2023-04-29T12:05:07.092Z,15.16
2023-04-29T12:06:08.435Z,14.99
2023-04-29T12:07:06.811Z,14.98
2023-04-29T12:08:06.811Z,14.98
2023-04-29T12:09:06.932Z,15.01
2023-04-29T12:10:06.819Z,14.98
2023-04-29T12:11:06.808Z,14.86
2023-04-29T12:12:08.126Z,14.84
2023-04-29T12:13:08.985Z,14.92
2023-04-29T12:14:07.676Z,14.92
2023-04-29T12:15:06.742Z,14.96
2023-04-29T12:16:06.740Z,14.98
2023-04-29T12:17:06.769Z,15.03
2023-04-29T12:18:06.718Z,14.98
2023-04-29T12:19:06.716Z,15.07
2023-04-29T12:20:06.686Z,15.19
2023-04-29T12:21:07.004Z,15.25
2023-04-29T12:22:08.183Z,15.39
2023-04-29T12:23:06.667Z,15.20
2023-04-29T12:24:07.270Z,15.19
2023-04-29T12:25:06.667Z,15.09
2023-04-29T12:26:06.645Z,15.10
2023-04-29T12:27:06.631Z,15.29
2023-04-29T12:28:08.411Z,15.39
2023-04-29T12:29:06.602Z,15.49
2023-04-29T12:30:06.575Z,15.41
2023-04-29T12:31:06.600Z,15.35
2023-04-29T12:32:06.563Z,15.39
2023-04-29T12:33:06.626Z,15.31
2023-04-29T12:34:10.043Z,15.03
2023-04-29T12:35:06.584Z,15.16
2023-04-29T12:36:06.649Z,15.28
2023-04-29T12:37:06.540Z,15.35
2023-04-29T12:38:06.679Z,15.39
2023-04-29T12:39:06.501Z,15.39
2023-04-29T12:40:06.751Z,15.51
2023-04-29T12:41:06.521Z,15.57
2023-04-29T12:42:06.445Z,15.53
2023-04-29T12:43:06.433Z,15.46
2023-04-29T12:44:06.420Z,15.46
2023-04-29T12:45:06.467Z,15.49
2023-04-29T12:46:06.384Z,15.31
2023-04-29T12:47:06.878Z,15.10
2023-04-29T12:48:10.042Z,15.02
2023-04-29T12:49:07.516Z,14.91
2023-04-29T12:50:06.424Z,14.75
2023-04-29T12:51:06.369Z,14.65
2023-04-29T12:52:06.538Z,14.75
2023-04-29T12:53:06.477Z,14.84
2023-04-29T12:54:07.324Z,14.84
2023-04-29T12:55:06.298Z,14.89
2023-04-29T12:56:06.656Z,14.72
2023-04-29T12:57:06.917Z,14.81
2023-04-29T12:58:06.454Z,15.09
2023-04-29T12:59:06.601Z,15.31
2023-04-29T13:00:06.549Z,15.41